Schiller Park, Illinois
Current Conditions -  °F | °C
As of 10:51 AM on Tuesday 27 Jan 2015 (Local Time) from KORD Reporting Station
Overcast Overcast  
Wind Chill: 21°   Ceiling: 2600
Heat Index: 29°   Visibility: 10mi
Dew Point: 20°   Wind: 8mph
Humidity: 69%   Direction: 20°NNE
Pressure: 30.16"   Gusts: NA
Location:  41.95°N, 87.86°W
Report Text: KORD 271651Z 02007KT 10SM OVC026 M02/M07 A3016 RMK AO2 SLP221 T10171067
Loading
Personal Weather Stations






























Interactive Weather Map New forecast layout! Learn more

10-Day Weather Forecast

Advertisements
Track Severe Weather on mobile